Airfield :
LOGIN :

Register | Disclaimer

   EN    FR    IT 

 










Legend :    VFR   Marginal VFR   IFR   Intensive IFR   Very Intensive IFR
Visi :
Ceiling :
>= 8 km
>= 3000ft
5 to 8 km
1000 to 3000 ft
1500m to 5 km
500 to 1000 ft
800 to 1500m
200 to 500 ft
< 800m
< 200 ft
Symbols :   Thunderstorms  Fog  Heavy snow  Heavy precipitations  Wind > 20 kt
SIGMETs :     Misc.  Thunderstorms  Icing  Turbulence  Mountain Waves  Volcanic Ashes







- Airport Elevation : 433 ft
- Download approach charts


LFOC - Chateaudun

CURRENT METAR :
  • 200200Z AUTO 00000KT 0650 0550 R28/1000D FG NSC 05/04 Q1024

EXPIRED METARs :
  • 200130Z AUTO 00000KT 0800 0650 R28/1100D FG NSC 05/04 Q1024
  • 200100Z AUTO 00000KT 1500 1000 R28/1100U BCFG NSC 05/05 Q1024
  • 200030Z AUTO 00000KT 5000 0450 R28/P2000 BCFG NSC 06/06 Q1024
  • 200000Z AUTO 29002KT 0800 0700 R28/0700D FG NSC 07/07 Q1024
  • 192330Z AUTO 26002KT 5000 1300 R28/P2000 BR NSC 06/06 Q1024

TAF TAF LFOC
Valid from the 19 at 15:00 until the 20 at 15:00 UTC


191400Z 1915/2015 34008KT 9999 SCT040
BECMG 1920/1922 CAVOK
BECMG 1923/2001 4000 BR
PROB40
TEMPO 2002/2008 0800 FG VV///
No reported NOTAMs for that airfield.



MET'MAP, your aeronautical weather chart ! - Copyright ORBIFLY December 2007 - Disclaimer

ORBIFLY MET'MAP TEAM :

Programming & Development : Alexandra Zaïnal
Concept & Development : Baudouin d'Aumeries
Co-Development & Prog : Marc-Olivier Méhu
Technical & hardware support : Manuel Goepfert

Contact : metmap@orbifly.com




SOURCES & CREDITS :

   NOAA